Time,TemperatureF,DewpointF,PressureIn,WindDirection,WindDirectionDegrees,WindSpeedMPH,WindSpeedGustMPH,Humidity,HourlyPrecipIn,Conditions,Clouds,dailyrainin,SoftwareType,DateUTC
2013-10-07 00:04:00,43.3,38.8,29.67,WNW,292,1.3,6.3,84,0.00,,,0.00,WUHU21623XXSP,2013-10-07 05:04:00,
2013-10-07 00:09:00,43.3,39.1,29.67,NW,309,2.0,3.2,85,0.00,,,0.00,WUHU21623XXSP,2013-10-07 05:09:00,
2013-10-07 00:14:00,43.3,39.4,29.67,WNW,301,1.4,2.6,86,0.00,,,0.00,WUHU21623XXSP,2013-10-07 05:14:00,
2013-10-07 00:19:00,43.3,39.1,29.67,NW,315,1.6,4.9,85,0.00,,,0.00,WUHU21623XXSP,2013-10-07 05:19:00,
2013-10-07 00:24:00,42.6,38.4,29.66,NW,305,1.0,4.9,85,0.00,,,0.00,WUHU21623XXSP,2013-10-07 05:24:00,
2013-10-07 00:29:00,42.1,38.2,29.66,West,270,0.0,2.0,86,0.00,,,0.00,WUHU21623XXSP,2013-10-07 05:29:00,
2013-10-07 00:34:00,42.1,38.2,29.66,WNW,298,0.7,2.7,86,0.00,,,0.00,WUHU21623XXSP,2013-10-07 05:34:00,
2013-10-07 00:39:00,41.7,37.8,29.66,WNW,293,0.6,2.7,86,0.00,,,0.00,WUHU21623XXSP,2013-10-07 05:39:00,
2013-10-07 00:44:00,41.5,37.6,29.66,WNW,289,0.6,2.0,86,0.00,,,0.00,WUHU21623XXSP,2013-10-07 05:44:00,
2013-10-07 00:53:00,42.1,38.2,29.66,West,270,1.3,1.3,86,0.00,,,0.00,WUHU21623XXSP,2013-10-07 05:53:00,
2013-10-07 00:58:00,41.4,37.5,29.66,West,281,0.8,1.3,86,0.00,,,0.00,WUHU21623XXSP,2013-10-07 05:58:00,
2013-10-07 01:03:00,41.2,37.3,29.66,West,280,0.8,1.3,86,0.00,,,0.00,WUHU21623XXSP,2013-10-07 06:03:00,
2013-10-07 01:08:00,41.5,37.6,29.66,WNW,292,0.8,2.9,86,0.00,,,0.00,WUHU21623XXSP,2013-10-07 06:08:00,
2013-10-07 01:13:00,40.8,36.9,29.67,West,270,2.2,2.9,86,0.00,,,0.00,WUHU21623XXSP,2013-10-07 06:13:00,
2013-10-07 01:18:00,41.5,37.6,29.67,West,273,1.2,3.6,86,0.00,,,0.00,WUHU21623XXSP,2013-10-07 06:18:00,
2013-10-07 01:23:00,41.9,38.0,29.67,West,270,0.0,3.6,86,0.00,,,0.00,WUHU21623XXSP,2013-10-07 06:23:00,
2013-10-07 01:28:00,42.6,38.7,29.67,West,270,2.2,3.6,86,0.00,,,0.00,WUHU21623XXSP,2013-10-07 06:28:00,
2013-10-07 01:33:00,42.8,38.9,29.67,West,265,1.1,3.4,86,0.00,,,0.00,WUHU21623XXSP,2013-10-07 06:33:00,
2013-10-07 01:38:00,42.3,38.3,29.67,West,270,1.1,3.4,86,0.00,,,0.00,WUHU21623XXSP,2013-10-07 06:38:00,
2013-10-07 01:43:00,41.7,37.8,29.67,West,270,0.9,2.5,86,0.00,,,0.00,WUHU21623XXSP,2013-10-07 06:43:00,
2013-10-07 01:48:00,41.2,37.6,29.68,West,268,0.5,1.6,87,0.00,,,0.00,WUHU21623XXSP,2013-10-07 06:48:00,
2013-10-07 01:53:00,41.2,37.6,29.67,West,270,0.7,2.7,87,0.00,,,0.00,WUHU21623XXSP,2013-10-07 06:53:00,
2013-10-07 01:58:00,41.0,37.7,29.68,West,270,0.0,3.6,88,0.00,,,0.00,WUHU21623XXSP,2013-10-07 06:58:00,
2013-10-07 02:03:00,40.8,37.5,29.68,West,270,0.0,3.6,88,0.00,,,0.00,WUHU21623XXSP,2013-10-07 07:03:00,
2013-10-07 02:08:00,40.3,37.0,29.67,West,270,1.6,2.5,88,0.00,,,0.00,WUHU21623XXSP,2013-10-07 07:08:00,
2013-10-07 02:13:00,40.3,37.0,29.67,West,270,1.1,2.2,88,0.00,,,0.00,WUHU21623XXSP,2013-10-07 07:13:00,
2013-10-07 02:18:00,40.1,36.8,29.68,West,270,0.0,2.2,88,0.00,,,0.00,WUHU21623XXSP,2013-10-07 07:18:00,
2013-10-07 02:23:00,39.9,36.6,29.68,West,270,0.0,2.2,88,0.00,,,0.00,WUHU21623XXSP,2013-10-07 07:23:00,
2013-10-07 02:28:00,40.1,36.8,29.67,West,270,0.0,2.2,88,0.00,,,0.00,WUHU21623XXSP,2013-10-07 07:28:00,
2013-10-07 02:33:00,40.3,37.0,29.67,West,270,0.0,2.2,88,0.00,,,0.00,WUHU21623XXSP,2013-10-07 07:33:00,
2013-10-07 02:38:00,39.7,36.4,29.67,West,270,0.0,1.6,88,0.00,,,0.00,WUHU21623XXSP,2013-10-07 07:38:00,
2013-10-07 02:43:00,39.7,36.4,29.67,West,270,0.0,2.0,88,0.00,,,0.00,WUHU21623XXSP,2013-10-07 07:43:00,
2013-10-07 02:48:00,40.8,37.5,29.67,West,270,1.3,2.0,88,0.00,,,0.00,WUHU21623XXSP,2013-10-07 07:48:00,
2013-10-07 02:53:00,40.8,37.5,29.67,West,270,1.1,1.3,88,0.00,,,0.00,WUHU21623XXSP,2013-10-07 07:53:00,
2013-10-07 02:58:00,40.3,37.0,29.67,West,270,1.8,1.8,88,0.00,,,0.00,WUHU21623XXSP,2013-10-07 07:58:00,
2013-10-07 03:03:00,40.8,37.5,29.67,West,270,0.0,2.5,88,0.00,,,0.00,WUHU21623XXSP,2013-10-07 08:03:00,
2013-10-07 03:08:00,41.0,38.0,29.67,West,270,0.0,2.5,89,0.00,,,0.00,WUHU21623XXSP,2013-10-07 08:08:00,
2013-10-07 03:13:00,41.2,37.9,29.68,West,270,0.0,2.5,88,0.00,,,0.00,WUHU21623XXSP,2013-10-07 08:13:00,
2013-10-07 03:18:00,41.7,38.7,29.68,West,270,0.0,2.5,89,0.00,,,0.00,WUHU21623XXSP,2013-10-07 08:18:00,
2013-10-07 03:23:00,41.7,38.7,29.68,West,270,0.0,3.4,89,0.00,,,0.00,WUHU21623XXSP,2013-10-07 08:23:00,
2013-10-07 03:28:00,41.9,38.9,29.68,West,270,0.0,4.5,89,0.00,,,0.00,WUHU21623XXSP,2013-10-07 08:28:00,
2013-10-07 03:33:00,41.9,38.9,29.68,West,270,1.8,4.7,89,0.00,,,0.00,WUHU21623XXSP,2013-10-07 08:33:00,
2013-10-07 03:38:00,41.7,38.7,29.67,WNW,292,2.7,4.9,89,0.00,,,0.00,WUHU21623XXSP,2013-10-07 08:38:00,
2013-10-07 03:43:00,41.7,38.7,29.67,West,270,1.6,6.7,89,0.00,,,0.00,WUHU21623XXSP,2013-10-07 08:43:00,
2013-10-07 03:48:00,41.7,38.7,29.68,WNW,292,4.0,6.7,89,0.00,,,0.00,WUHU21623XXSP,2013-10-07 08:48:00,
2013-10-07 03:53:00,41.7,38.7,29.68,NW,315,0.0,4.3,89,0.00,,,0.00,WUHU21623XXSP,2013-10-07 08:53:00,
2013-10-07 03:58:00,41.7,38.7,29.68,West,270,0.0,4.3,89,0.00,,,0.00,WUHU21623XXSP,2013-10-07 08:58:00,
2013-10-07 04:03:00,41.7,38.7,29.68,WNW,292,0.0,2.7,89,0.00,,,0.00,WUHU21623XXSP,2013-10-07 09:03:00,
2013-10-07 04:08:00,41.9,38.9,29.68,NW,315,4.0,4.3,89,0.00,,,0.00,WUHU21623XXSP,2013-10-07 09:08:00,
2013-10-07 04:13:00,41.7,38.7,29.68,WNW,292,2.5,6.3,89,0.00,,,0.00,WUHU21623XXSP,2013-10-07 09:13:00,
2013-10-07 04:18:00,41.5,38.5,29.69,NW,315,7.2,7.2,89,0.00,,,0.00,WUHU21623XXSP,2013-10-07 09:18:00,
2013-10-07 04:23:00,41.5,38.5,29.69,West,270,1.3,7.2,89,0.00,,,0.00,WUHU21623XXSP,2013-10-07 09:23:00,
2013-10-07 04:28:00,41.9,38.9,29.69,West,270,0.0,5.4,89,0.00,,,0.00,WUHU21623XXSP,2013-10-07 09:28:00,
2013-10-07 04:33:00,41.9,38.9,29.69,NW,315,0.7,5.4,89,0.00,,,0.00,WUHU21623XXSP,2013-10-07 09:33:00,
2013-10-07 04:38:00,41.7,38.7,29.69,NW,315,2.5,6.7,89,0.00,,,0.00,WUHU21623XXSP,2013-10-07 09:38:00,
2013-10-07 04:43:00,41.7,38.7,29.70,NW,315,2.9,6.7,89,0.00,,,0.00,WUHU21623XXSP,2013-10-07 09:43:00,
2013-10-07 04:48:00,41.5,38.5,29.70,NW,318,2.5,7.6,89,0.00,,,0.00,WUHU21623XXSP,2013-10-07 09:48:00,
2013-10-07 04:53:00,41.5,38.2,29.69,NW,315,0.4,7.6,88,0.00,,,0.00,WUHU21623XXSP,2013-10-07 09:53:00,
2013-10-07 04:58:00,41.5,38.2,29.70,NW,315,4.7,8.3,88,0.00,,,0.00,WUHU21623XXSP,2013-10-07 09:58:00,
2013-10-07 05:03:00,41.7,38.4,29.70,NW,315,2.9,8.3,88,0.00,,,0.00,WUHU21623XXSP,2013-10-07 10:03:00,
2013-10-07 05:08:00,41.5,38.2,29.70,NW,315,1.3,7.8,88,0.00,,,0.00,WUHU21623XXSP,2013-10-07 10:08:00,
2013-10-07 05:13:00,41.2,37.9,29.70,WSW,247,0.0,7.8,88,0.00,,,0.00,WUHU21623XXSP,2013-10-07 10:13:00,
2013-10-07 05:18:00,41.4,38.0,29.70,WNW,292,1.6,6.5,88,0.00,,,0.00,WUHU21623XXSP,2013-10-07 10:18:00,
2013-10-07 05:23:00,41.4,38.0,29.71,NW,315,6.7,7.6,88,0.00,,,0.00,WUHU21623XXSP,2013-10-07 10:23:00,
2013-10-07 05:28:00,41.2,37.9,29.71,NW,315,3.6,8.3,88,0.00,,,0.00,WUHU21623XXSP,2013-10-07 10:28:00,
2013-10-07 05:33:00,40.8,37.5,29.71,NW,315,3.6,8.3,88,0.00,,,0.00,WUHU21623XXSP,2013-10-07 10:33:00,
2013-10-07 05:38:00,40.8,37.5,29.71,NW,314,2.5,6.5,88,0.00,,,0.00,WUHU21623XXSP,2013-10-07 10:38:00,
2013-10-07 05:43:00,40.8,37.5,29.71,NNW,337,1.8,6.5,88,0.00,,,0.00,WUHU21623XXSP,2013-10-07 10:43:00,
2013-10-07 05:48:00,40.8,37.5,29.71,NW,315,5.8,6.5,88,0.00,,,0.00,WUHU21623XXSP,2013-10-07 10:48:00,
2013-10-07 05:53:00,40.8,37.5,29.71,NW,315,2.7,5.8,88,0.00,,,0.00,WUHU21623XXSP,2013-10-07 10:53:00,
2013-10-07 05:58:00,40.8,37.5,29.71,West,270,0.0,6.3,88,0.00,,,0.00,WUHU21623XXSP,2013-10-07 10:58:00,
2013-10-07 06:03:00,40.8,37.5,29.71,NW,315,2.9,6.9,88,0.00,,,0.00,WUHU21623XXSP,2013-10-07 11:03:00,
2013-10-07 06:08:00,40.6,37.3,29.72,NNW,337,2.9,7.2,88,0.00,,,0.00,WUHU21623XXSP,2013-10-07 11:08:00,
2013-10-07 06:13:00,40.6,37.3,29.72,NW,315,2.5,7.6,88,0.00,,,0.00,WUHU21623XXSP,2013-10-07 11:13:00,
2013-10-07 06:18:00,40.6,37.3,29.72,NW,315,0.0,7.6,88,0.00,,,0.00,WUHU21623XXSP,2013-10-07 11:18:00,
2013-10-07 06:23:00,40.3,37.0,29.72,NW,315,0.0,6.7,88,0.00,,,0.00,WUHU21623XXSP,2013-10-07 11:23:00,
2013-10-07 06:28:00,40.5,37.1,29.72,WNW,292,2.5,5.1,88,0.00,,,0.00,WUHU21623XXSP,2013-10-07 11:28:00,
2013-10-07 06:33:00,40.5,37.1,29.73,NW,315,0.0,7.2,88,0.00,,,0.00,WUHU21623XXSP,2013-10-07 11:33:00,
2013-10-07 06:38:00,40.6,37.3,29.73,NNW,337,0.9,7.2,88,0.00,,,0.00,WUHU21623XXSP,2013-10-07 11:38:00,
2013-10-07 06:43:00,40.5,37.5,29.73,NW,315,3.8,5.4,89,0.00,,,0.00,WUHU21623XXSP,2013-10-07 11:43:00,
2013-10-07 06:48:00,40.3,37.3,29.73,NW,315,0.4,4.9,89,0.00,,,0.00,WUHU21623XXSP,2013-10-07 11:48:00,
2013-10-07 06:53:00,40.1,37.1,29.73,NNW,337,3.6,5.4,89,0.00,,,0.00,WUHU21623XXSP,2013-10-07 11:53:00,
2013-10-07 06:58:00,39.9,36.9,29.73,NNW,337,1.8,5.6,89,0.00,,,0.00,WUHU21623XXSP,2013-10-07 11:58:00,
2013-10-07 07:03:00,39.9,36.9,29.74,NW,315,6.0,6.0,89,0.00,,,0.00,WUHU21623XXSP,2013-10-07 12:03:00,
2013-10-07 07:08:00,39.9,36.9,29.74,NW,315,0.0,6.0,89,0.00,,,0.00,WUHU21623XXSP,2013-10-07 12:08:00,
2013-10-07 07:13:00,40.1,37.1,29.74,NW,315,1.3,8.1,89,0.00,,,0.00,WUHU21623XXSP,2013-10-07 12:13:00,
2013-10-07 07:18:00,39.9,36.9,29.74,NW,315,5.6,8.9,89,0.00,,,0.00,WUHU21623XXSP,2013-10-07 12:18:00,
2013-10-07 07:23:00,39.9,36.9,29.74,WNW,292,0.0,8.9,89,0.00,,,0.00,WUHU21623XXSP,2013-10-07 12:23:00,
2013-10-07 07:28:00,39.9,36.9,29.75,NW,315,5.4,5.8,89,0.00,,,0.00,WUHU21623XXSP,2013-10-07 12:28:00,
2013-10-07 07:33:00,39.9,36.9,29.75,WSW,247,0.0,5.8,89,0.00,,,0.00,WUHU21623XXSP,2013-10-07 12:33:00,
2013-10-07 07:38:00,39.9,36.9,29.75,NW,315,0.0,4.9,89,0.00,,,0.00,WUHU21623XXSP,2013-10-07 12:38:00,
2013-10-07 07:43:00,39.9,36.9,29.75,NW,315,4.5,4.5,89,0.00,,,0.00,WUHU21623XXSP,2013-10-07 12:43:00,
2013-10-07 07:48:00,39.9,36.9,29.75,NW,315,3.6,6.7,89,0.00,,,0.00,WUHU21623XXSP,2013-10-07 12:48:00,
2013-10-07 07:53:00,39.9,36.9,29.75,NW,315,1.3,6.7,89,0.00,,,0.00,WUHU21623XXSP,2013-10-07 12:53:00,
2013-10-07 07:58:00,39.9,36.9,29.75,North,0,0.4,4.7,89,0.00,,,0.00,WUHU21623XXSP,2013-10-07 12:58:00,
2013-10-07 08:03:00,40.1,37.1,29.75,NW,315,1.1,6.3,89,0.00,,,0.00,WUHU21623XXSP,2013-10-07 13:03:00,
2013-10-07 08:08:00,40.3,37.3,29.76,NW,315,0.0,6.3,89,0.00,,,0.00,WUHU21623XXSP,2013-10-07 13:08:00,
2013-10-07 08:13:00,40.5,37.5,29.76,NNW,337,1.8,5.4,89,0.00,,,0.00,WUHU21623XXSP,2013-10-07 13:13:00,
2013-10-07 08:18:00,40.6,37.6,29.75,NNW,337,2.2,3.4,89,0.00,,,0.00,WUHU21623XXSP,2013-10-07 13:18:00,
2013-10-07 08:23:00,40.8,37.8,29.76,NW,315,0.0,8.3,89,0.00,,,0.00,WUHU21623XXSP,2013-10-07 13:23:00,
2013-10-07 08:28:00,40.8,37.8,29.76,NW,315,0.9,8.3,89,0.00,,,0.00,WUHU21623XXSP,2013-10-07 13:28:00,
2013-10-07 08:33:00,41.0,38.0,29.76,NW,315,3.1,5.1,89,0.00,,,0.00,WUHU21623XXSP,2013-10-07 13:33:00,
2013-10-07 08:38:00,41.2,38.2,29.76,NW,315,4.7,6.3,89,0.00,,,0.00,WUHU21623XXSP,2013-10-07 13:38:00,
2013-10-07 08:43:00,41.4,38.4,29.77,West,270,0.0,6.3,89,0.00,,,0.00,WUHU21623XXSP,2013-10-07 13:43:00,
2013-10-07 08:48:00,41.5,38.5,29.77,NNW,337,6.9,6.9,89,0.00,,,0.00,WUHU21623XXSP,2013-10-07 13:48:00,
2013-10-07 08:53:00,41.5,38.5,29.77,NNW,337,0.0,6.9,89,0.00,,,0.00,WUHU21623XXSP,2013-10-07 13:53:00,
2013-10-07 08:58:00,41.9,38.9,29.77,NW,315,3.4,5.6,89,0.00,,,0.00,WUHU21623XXSP,2013-10-07 13:58:00,
2013-10-07 09:03:00,41.9,38.9,29.77,NW,315,2.2,5.6,89,0.00,,,0.00,WUHU21623XXSP,2013-10-07 14:03:00,
2013-10-07 09:08:00,42.4,39.4,29.78,West,270,0.0,9.8,89,0.00,,,0.00,WUHU21623XXSP,2013-10-07 14:08:00,
2013-10-07 09:13:00,42.6,39.6,29.78,NW,315,4.7,9.8,89,0.00,,,0.00,WUHU21623XXSP,2013-10-07 14:13:00,
2013-10-07 09:18:00,42.6,39.5,29.78,WNW,301,3.1,6.7,89,0.00,,,0.00,WUHU21623XXSP,2013-10-07 14:18:00,
2013-10-07 09:23:00,43.0,39.9,29.78,NW,304,3.2,5.6,89,0.00,,,0.00,WUHU21623XXSP,2013-10-07 14:23:00,
2013-10-07 09:28:00,43.5,40.4,29.78,NW,304,3.2,7.2,89,0.00,,,0.00,WUHU21623XXSP,2013-10-07 14:28:00,
2013-10-07 09:33:00,43.9,40.9,29.78,West,270,0.0,12.3,89,0.00,,,0.00,WUHU21623XXSP,2013-10-07 14:33:00,
2013-10-07 09:38:00,44.4,41.4,29.78,WNW,292,2.2,12.3,89,0.00,,,0.00,WUHU21623XXSP,2013-10-07 14:38:00,
2013-10-07 09:43:00,44.6,41.3,29.78,WSW,247,0.0,10.1,88,0.00,,,0.00,WUHU21623XXSP,2013-10-07 14:43:00,
2013-10-07 09:48:00,45.3,42.0,29.78,NW,315,9.4,9.4,88,0.00,,,0.00,WUHU21623XXSP,2013-10-07 14:48:00,
2013-10-07 09:53:00,46.0,42.4,29.78,NW,315,3.1,9.4,87,0.00,,,0.00,WUHU21623XXSP,2013-10-07 14:53:00,
2013-10-07 09:58:00,46.6,42.6,29.79,WSW,247,1.1,7.8,86,0.00,,,0.00,WUHU21623XXSP,2013-10-07 14:58:00,
2013-10-07 10:03:00,46.6,42.6,29.79,NW,315,4.9,8.1,86,0.00,,,0.00,WUHU21623XXSP,2013-10-07 15:03:00,
2013-10-07 10:08:00,47.1,42.9,29.79,WNW,292,4.0,8.1,85,0.00,,,0.00,WUHU21623XXSP,2013-10-07 15:08:00,
2013-10-07 10:13:00,48.0,43.4,29.79,NNW,337,3.8,12.3,84,0.00,,,0.00,WUHU21623XXSP,2013-10-07 15:13:00,
2013-10-07 10:21:00,48.6,43.6,29.78,WNW,292,2.7,12.3,83,0.00,,,0.00,WUHU21623XXSP,2013-10-07 15:21:00,
2013-10-07 10:26:00,49.6,44.3,29.79,NW,315,2.0,6.7,82,0.00,,,0.00,WUHU21623XXSP,2013-10-07 15:26:00,
2013-10-07 10:31:00,50.0,44.4,29.79,West,270,0.0,8.1,81,0.00,,,0.00,WUHU21623XXSP,2013-10-07 15:31:00,
2013-10-07 10:36:00,50.2,44.5,29.79,NW,315,4.5,8.1,81,0.00,,,0.00,WUHU21623XXSP,2013-10-07 15:36:00,
2013-10-07 10:41:00,50.7,44.8,29.80,NW,315,8.1,8.3,80,0.00,,,0.00,WUHU21623XXSP,2013-10-07 15:41:00,
2013-10-07 10:46:00,51.8,45.2,29.80,West,270,4.0,8.3,78,0.00,,,0.00,WUHU21623XXSP,2013-10-07 15:46:00,
2013-10-07 10:51:00,52.2,45.2,29.80,NNW,337,5.1,7.6,77,0.00,,,0.00,WUHU21623XXSP,2013-10-07 15:51:00,
2013-10-07 10:56:00,51.8,44.1,29.80,North,0,2.9,7.8,75,0.00,,,0.00,WUHU21623XXSP,2013-10-07 15:56:00,
2013-10-07 11:01:00,52.3,45.4,29.80,WNW,292,4.0,28.4,77,0.00,,,0.00,WUHU21623XXSP,2013-10-07 16:01:00,
2013-10-07 11:06:00,52.2,44.1,29.80,NW,315,4.0,28.4,74,0.00,,,0.00,WUHU21623XXSP,2013-10-07 16:06:00,
2013-10-07 11:11:00,51.6,44.3,29.80,NW,315,5.1,28.4,76,0.00,,,0.00,WUHU21623XXSP,2013-10-07 16:11:00,
2013-10-07 11:16:00,51.6,43.6,29.80,NW,315,0.0,7.2,74,0.00,,,0.00,WUHU21623XXSP,2013-10-07 16:16:00,
2013-10-07 11:21:00,51.3,43.6,29.80,WNW,292,0.0,7.4,75,0.00,,,0.00,WUHU21623XXSP,2013-10-07 16:21:00,
2013-10-07 11:26:00,51.6,43.6,29.80,NW,315,2.0,7.8,74,0.00,,,0.00,WUHU21623XXSP,2013-10-07 16:26:00,
2013-10-07 11:31:00,51.8,44.1,29.80,WNW,292,3.6,8.7,75,0.00,,,0.00,WUHU21623XXSP,2013-10-07 16:31:00,
2013-10-07 11:36:00,52.2,43.8,29.80,West,270,4.0,28.4,73,0.00,,,0.00,WUHU21623XXSP,2013-10-07 16:36:00,
2013-10-07 11:41:00,51.6,43.3,29.80,NW,315,6.3,28.4,73,0.00,,,0.00,WUHU21623XXSP,2013-10-07 16:41:00,
2013-10-07 11:46:00,53.2,44.8,29.80,NW,315,1.6,9.8,73,0.00,,,0.00,WUHU21623XXSP,2013-10-07 16:46:00,
2013-10-07 11:51:00,55.0,45.1,29.80,NW,315,7.8,9.8,69,0.00,,,0.00,WUHU21623XXSP,2013-10-07 16:51:00,
2013-10-07 11:56:00,54.5,44.1,29.80,WNW,292,2.9,9.4,68,0.00,,,0.00,WUHU21623XXSP,2013-10-07 16:56:00,
2013-10-07 12:01:00,53.4,43.5,29.80,NW,315,0.0,28.4,69,0.00,,,0.00,WUHU21623XXSP,2013-10-07 17:01:00,
2013-10-07 12:06:00,53.1,43.9,29.80,NW,315,4.3,28.4,71,0.00,,,0.00,WUHU21623XXSP,2013-10-07 17:06:00,
2013-10-07 12:11:00,52.9,43.0,29.80,WNW,292,7.4,28.4,69,0.00,,,0.00,WUHU21623XXSP,2013-10-07 17:11:00,
2013-10-07 12:16:00,52.5,43.1,29.80,NNW,337,2.0,28.4,70,0.00,,,0.00,WUHU21623XXSP,2013-10-07 17:16:00,
2013-10-07 12:21:00,53.2,42.9,29.80,NW,315,8.3,28.4,68,0.00,,,0.00,WUHU21623XXSP,2013-10-07 17:21:00,
2013-10-07 12:26:00,54.3,43.6,29.80,NW,315,2.7,11.0,67,0.00,,,0.00,WUHU21623XXSP,2013-10-07 17:26:00,
2013-10-07 12:31:00,54.0,42.8,29.80,NW,315,5.1,11.0,66,0.00,,,0.00,WUHU21623XXSP,2013-10-07 17:31:00,
2013-10-07 12:36:00,54.3,43.8,29.80,WNW,292,7.8,10.3,68,0.00,,,0.00,WUHU21623XXSP,2013-10-07 17:36:00,
2013-10-07 12:41:00,54.9,42.5,29.80,NW,315,4.3,10.7,63,0.00,,,0.00,WUHU21623XXSP,2013-10-07 17:41:00,
2013-10-07 12:46:00,55.0,42.2,29.80,NW,315,8.1,11.4,62,0.00,,,0.00,WUHU21623XXSP,2013-10-07 17:46:00,
2013-10-07 12:51:00,55.2,42.4,29.80,NW,315,8.5,11.6,62,0.00,,,0.00,WUHU21623XXSP,2013-10-07 17:51:00,
2013-10-07 12:56:00,56.3,43.4,29.80,WNW,292,6.9,11.6,62,0.00,,,0.00,WUHU21623XXSP,2013-10-07 17:56:00,
2013-10-07 13:01:00,55.2,41.6,29.80,West,270,4.0,11.0,60,0.00,,,0.00,WUHU21623XXSP,2013-10-07 18:01:00,
2013-10-07 13:06:00,53.8,42.2,29.80,WSW,247,5.4,28.4,65,0.00,,,0.00,WUHU21623XXSP,2013-10-07 18:06:00,
2013-10-07 13:11:00,53.6,41.3,29.80,WNW,292,5.1,28.4,63,0.00,,,0.00,WUHU21623XXSP,2013-10-07 18:11:00,
2013-10-07 13:16:00,53.6,41.7,29.80,WNW,292,2.0,10.5,64,0.00,,,0.00,WUHU21623XXSP,2013-10-07 18:16:00,
2013-10-07 13:21:00,54.3,42.4,29.80,West,270,1.8,10.5,64,0.00,,,0.00,WUHU21623XXSP,2013-10-07 18:21:00,
2013-10-07 13:26:00,55.0,41.8,29.80,NW,315,4.3,9.8,61,0.00,,,0.00,WUHU21623XXSP,2013-10-07 18:26:00,
2013-10-07 13:31:00,54.7,42.3,29.80,WNW,292,9.8,9.8,63,0.00,,,0.00,WUHU21623XXSP,2013-10-07 18:31:00,
2013-10-07 13:36:00,53.8,41.1,29.80,West,270,1.6,12.5,63,0.00,,,0.00,WUHU21623XXSP,2013-10-07 18:36:00,
2013-10-07 13:41:00,55.2,42.0,29.80,West,270,0.0,12.5,61,0.00,,,0.00,WUHU21623XXSP,2013-10-07 18:41:00,
2013-10-07 13:46:00,55.9,40.9,29.79,NW,315,0.0,10.1,57,0.00,,,0.00,WUHU21623XXSP,2013-10-07 18:46:00,
2013-10-07 13:51:00,57.0,41.5,29.80,WNW,292,6.0,12.8,56,0.00,,,0.00,WUHU21623XXSP,2013-10-07 18:51:00,
2013-10-07 13:56:00,57.4,42.3,29.80,NW,315,3.1,12.8,57,0.00,,,0.00,WUHU21623XXSP,2013-10-07 18:56:00,
2013-10-07 14:01:00,56.8,42.2,29.80,West,270,8.3,10.5,58,0.00,,,0.00,WUHU21623XXSP,2013-10-07 19:01:00,
2013-10-07 14:06:00,57.0,41.5,29.80,WNW,292,6.9,14.8,56,0.00,,,0.00,WUHU21623XXSP,2013-10-07 19:06:00,
2013-10-07 14:11:00,56.7,40.3,29.80,WNW,289,6.3,14.8,54,0.00,,,0.00,WUHU21623XXSP,2013-10-07 19:11:00,
2013-10-07 14:16:00,55.9,40.4,29.80,WNW,292,3.1,13.4,56,0.00,,,0.00,WUHU21623XXSP,2013-10-07 19:16:00,
2013-10-07 14:21:00,55.0,39.5,29.80,West,270,0.0,12.3,56,0.00,,,0.00,WUHU21623XXSP,2013-10-07 19:21:00,
2013-10-07 14:26:00,54.1,39.7,29.81,WNW,302,6.3,10.7,58,0.00,,,0.00,WUHU21623XXSP,2013-10-07 19:26:00,
2013-10-07 14:31:00,54.1,39.6,29.80,West,270,3.4,12.5,58,0.00,,,0.00,WUHU21623XXSP,2013-10-07 19:31:00,
2013-10-07 14:36:00,53.8,39.3,29.81,NW,315,4.0,12.5,58,0.00,,,0.00,WUHU21623XXSP,2013-10-07 19:36:00,
2013-10-07 14:41:00,53.6,39.2,29.81,WNW,292,6.9,8.7,58,0.00,,,0.00,WUHU21623XXSP,2013-10-07 19:41:00,
2013-10-07 14:46:00,53.2,38.5,29.81,West,270,1.6,8.3,57,0.00,,,0.00,WUHU21623XXSP,2013-10-07 19:46:00,
2013-10-07 14:51:00,53.2,38.8,29.81,NW,315,4.7,8.5,58,0.00,,,0.00,WUHU21623XXSP,2013-10-07 19:51:00,
2013-10-07 14:56:00,53.8,39.3,29.81,NW,315,4.5,8.5,58,0.00,,,0.00,WUHU21623XXSP,2013-10-07 19:56:00,
2013-10-07 15:01:00,55.8,40.2,29.81,NW,315,5.8,8.9,56,0.00,,,0.00,WUHU21623XXSP,2013-10-07 20:01:00,
2013-10-07 15:06:00,56.1,40.1,29.81,NW,315,7.4,8.9,55,0.00,,,0.00,WUHU21623XXSP,2013-10-07 20:06:00,
2013-10-07 15:11:00,55.2,39.2,29.81,WNW,292,2.5,11.2,55,0.00,,,0.00,WUHU21623XXSP,2013-10-07 20:11:00,
2013-10-07 15:16:00,54.3,39.3,29.81,NW,315,7.8,11.2,57,0.00,,,0.00,WUHU21623XXSP,2013-10-07 20:16:00,
2013-10-07 15:21:00,53.8,39.8,29.81,NW,315,4.3,9.8,59,0.00,,,0.00,WUHU21623XXSP,2013-10-07 20:21:00,
2013-10-07 15:26:00,55.4,39.8,29.81,WSW,247,1.3,9.8,56,0.00,,,0.00,WUHU21623XXSP,2013-10-07 20:26:00,
2013-10-07 15:31:00,56.3,40.3,29.80,North,0,10.7,10.7,55,0.00,,,0.00,WUHU21623XXSP,2013-10-07 20:31:00,
2013-10-07 15:36:00,57.0,40.5,29.81,WSW,247,6.9,28.4,54,0.00,,,0.00,WUHU21623XXSP,2013-10-07 20:36:00,
2013-10-07 15:41:00,57.4,40.4,29.81,WSW,247,2.5,28.4,53,0.00,,,0.00,WUHU21623XXSP,2013-10-07 20:41:00,
2013-10-07 15:46:00,57.9,40.9,29.80,NW,315,0.0,11.9,53,0.00,,,0.00,WUHU21623XXSP,2013-10-07 20:46:00,
2013-10-07 15:51:00,58.1,41.1,29.80,SW,225,8.3,11.9,53,0.00,,,0.00,WUHU21623XXSP,2013-10-07 20:51:00,
2013-10-07 15:56:00,57.7,40.3,29.80,WSW,247,4.5,8.3,52,0.00,,,0.00,WUHU21623XXSP,2013-10-07 20:56:00,
2013-10-07 16:01:00,57.7,40.7,29.80,WSW,247,2.9,8.9,53,0.00,,,0.00,WUHU21623XXSP,2013-10-07 21:01:00,
2013-10-07 16:06:00,57.9,40.9,29.80,WSW,247,3.1,12.1,53,0.00,,,0.00,WUHU21623XXSP,2013-10-07 21:06:00,
2013-10-07 16:11:00,57.7,40.7,29.80,WSW,247,3.1,12.1,53,0.00,,,0.00,WUHU21623XXSP,2013-10-07 21:11:00,
2013-10-07 16:16:00,57.9,41.4,29.80,WSW,247,3.1,10.5,54,0.00,,,0.00,WUHU21623XXSP,2013-10-07 21:16:00,
2013-10-07 16:21:00,57.9,40.9,29.80,WSW,247,1.3,9.2,53,0.00,,,0.00,WUHU21623XXSP,2013-10-07 21:21:00,
2013-10-07 16:26:00,58.1,41.5,29.81,WSW,247,0.9,9.2,54,0.00,,,0.00,WUHU21623XXSP,2013-10-07 21:26:00,
2013-10-07 16:31:00,57.9,40.4,29.81,WSW,247,9.6,9.6,52,0.00,,,0.00,WUHU21623XXSP,2013-10-07 21:31:00,
2013-10-07 16:36:00,57.4,39.0,29.81,WSW,247,3.6,11.9,50,0.00,,,0.00,WUHU21623XXSP,2013-10-07 21:36:00,
2013-10-07 16:41:00,57.0,38.7,29.81,West,270,6.3,11.9,50,0.00,,,0.00,WUHU21623XXSP,2013-10-07 21:41:00,
2013-10-07 16:46:00,56.8,38.9,29.81,WSW,247,2.2,10.5,51,0.00,,,0.00,WUHU21623XXSP,2013-10-07 21:46:00,
2013-10-07 16:51:00,56.5,39.5,29.81,WSW,247,6.9,10.5,53,0.00,,,0.00,WUHU21623XXSP,2013-10-07 21:51:00,
2013-10-07 16:56:00,56.5,39.5,29.81,WSW,247,17.7,17.7,53,0.00,,,0.00,WUHU21623XXSP,2013-10-07 21:56:00,
2013-10-07 17:01:00,56.3,39.3,29.81,WNW,292,6.3,17.7,53,0.00,,,0.00,WUHU21623XXSP,2013-10-07 22:01:00,
2013-10-07 17:06:00,55.9,38.5,29.81,WSW,247,3.6,11.6,52,0.00,,,0.00,WUHU21623XXSP,2013-10-07 22:06:00,
2013-10-07 17:11:00,55.9,38.5,29.81,WSW,247,3.1,8.5,52,0.00,,,0.00,WUHU21623XXSP,2013-10-07 22:11:00,
2013-10-07 17:16:00,55.9,39.0,29.81,West,270,2.9,8.5,53,0.00,,,0.00,WUHU21623XXSP,2013-10-07 22:16:00,
2013-10-07 17:21:00,55.6,37.7,29.81,NW,315,5.4,7.8,51,0.00,,,0.00,WUHU21623XXSP,2013-10-07 22:21:00,
2013-10-07 17:26:00,55.4,38.4,29.82,WNW,292,2.5,7.8,53,0.00,,,0.00,WUHU21623XXSP,2013-10-07 22:26:00,
2013-10-07 17:31:00,55.2,37.8,29.82,West,270,2.7,9.2,52,0.00,,,0.00,WUHU21623XXSP,2013-10-07 22:31:00,
2013-10-07 17:36:00,54.9,38.4,29.82,West,270,2.7,9.2,54,0.00,,,0.00,WUHU21623XXSP,2013-10-07 22:36:00,
2013-10-07 17:41:00,54.3,38.4,29.82,NW,315,7.2,8.3,55,0.00,,,0.00,WUHU21623XXSP,2013-10-07 22:41:00,
2013-10-07 17:46:00,54.0,38.6,29.82,North,0,0.0,8.5,56,0.00,,,0.00,WUHU21623XXSP,2013-10-07 22:46:00,
2013-10-07 17:51:00,53.8,38.9,29.82,WNW,292,1.8,7.2,57,0.00,,,0.00,WUHU21623XXSP,2013-10-07 22:51:00,
2013-10-07 17:56:00,53.4,38.5,29.82,West,270,0.0,7.2,57,0.00,,,0.00,WUHU21623XXSP,2013-10-07 22:56:00,
2013-10-07 18:01:00,53.4,38.5,29.82,WNW,292,4.3,6.5,57,0.00,,,0.00,WUHU21623XXSP,2013-10-07 23:01:00,
2013-10-07 18:06:00,52.9,38.4,29.82,West,270,0.0,5.1,58,0.00,,,0.00,WUHU21623XXSP,2013-10-07 23:06:00,
2013-10-07 18:11:00,52.7,38.7,29.82,West,270,1.8,2.9,59,0.00,,,0.00,WUHU21623XXSP,2013-10-07 23:11:00,
2013-10-07 18:16:00,52.3,39.6,29.82,WNW,292,0.0,2.0,62,0.00,,,0.00,WUHU21623XXSP,2013-10-07 23:16:00,
2013-10-07 18:21:00,51.1,39.7,29.82,West,270,0.0,2.0,65,0.00,,,0.00,WUHU21623XXSP,2013-10-07 23:21:00,
2013-10-07 18:26:00,50.2,39.2,29.82,West,270,0.0,0.7,66,0.00,,,0.00,WUHU21623XXSP,2013-10-07 23:26:00,
2013-10-07 18:31:00,49.3,39.1,29.82,West,270,0.0,0.0,68,0.00,,,0.00,WUHU21623XXSP,2013-10-07 23:31:00,
2013-10-07 18:36:00,49.6,39.1,29.83,West,270,0.0,0.0,67,0.00,,,0.00,WUHU21623XXSP,2013-10-07 23:36:00,
2013-10-07 18:41:00,48.7,39.4,29.82,West,270,0.0,0.0,70,0.00,,,0.00,WUHU21623XXSP,2013-10-07 23:41:00,
2013-10-07 18:46:00,48.2,38.8,29.83,West,270,0.0,0.0,70,0.00,,,0.00,WUHU21623XXSP,2013-10-07 23:46:00,
2013-10-07 18:51:00,47.8,38.5,29.83,West,270,0.0,0.0,70,0.00,,,0.00,WUHU21623XXSP,2013-10-07 23:51:00,
2013-10-07 18:56:00,47.8,38.5,29.83,West,270,0.0,0.0,70,0.00,,,0.00,WUHU21623XXSP,2013-10-07 23:56:00,
2013-10-07 19:01:00,47.8,38.1,29.83,West,270,0.0,0.0,69,0.00,,,0.00,WUHU21623XXSP,2013-10-08 00:01:00,
2013-10-07 19:06:00,47.3,37.6,29.83,West,270,0.0,0.0,69,0.00,,,0.00,WUHU21623XXSP,2013-10-08 00:06:00,
2013-10-07 19:11:00,46.9,37.7,29.83,West,270,0.0,0.0,70,0.00,,,0.00,WUHU21623XXSP,2013-10-08 00:11:00,
2013-10-07 19:16:00,46.2,37.4,29.83,West,270,0.0,0.0,71,0.00,,,0.00,WUHU21623XXSP,2013-10-08 00:16:00,
2013-10-07 19:21:00,46.0,37.5,29.83,West,270,0.0,0.0,72,0.00,,,0.00,WUHU21623XXSP,2013-10-08 00:21:00,
2013-10-07 19:26:00,45.5,37.7,29.83,West,270,0.0,0.0,74,0.00,,,0.00,WUHU21623XXSP,2013-10-08 00:26:00,
2013-10-07 19:31:00,45.3,38.9,29.84,West,270,0.0,0.0,78,0.00,,,0.00,WUHU21623XXSP,2013-10-08 00:31:00,
2013-10-07 19:36:00,45.0,39.5,29.84,West,270,0.0,0.0,81,0.00,,,0.00,WUHU21623XXSP,2013-10-08 00:36:00,
2013-10-07 19:41:00,45.0,39.8,29.84,West,270,0.0,0.0,82,0.00,,,0.00,WUHU21623XXSP,2013-10-08 00:41:00,
2013-10-07 19:46:00,44.8,39.6,29.84,West,270,0.0,0.0,82,0.00,,,0.00,WUHU21623XXSP,2013-10-08 00:46:00,
2013-10-07 19:51:00,44.6,39.8,29.85,West,270,0.0,0.0,83,0.00,,,0.00,WUHU21623XXSP,2013-10-08 00:51:00,
2013-10-07 19:56:00,44.4,39.6,29.85,West,270,0.0,0.0,83,0.00,,,0.00,WUHU21623XXSP,2013-10-08 00:56:00,
2013-10-07 20:01:00,44.2,39.4,29.85,West,270,0.0,0.0,83,0.00,,,0.00,WUHU21623XXSP,2013-10-08 01:01:00,
2013-10-07 20:06:00,44.6,39.5,29.85,West,270,0.0,0.0,82,0.00,,,0.00,WUHU21623XXSP,2013-10-08 01:06:00,
2013-10-07 20:11:00,45.0,39.5,29.85,West,270,0.0,0.0,81,0.00,,,0.00,WUHU21623XXSP,2013-10-08 01:11:00,
2013-10-07 20:16:00,44.8,39.3,29.85,West,270,0.0,0.0,81,0.00,,,0.00,WUHU21623XXSP,2013-10-08 01:16:00,
2013-10-07 20:21:00,45.0,39.2,29.85,West,270,0.0,0.0,80,0.00,,,0.00,WUHU21623XXSP,2013-10-08 01:21:00,
2013-10-07 20:26:00,44.4,39.3,29.85,West,270,0.0,0.0,82,0.00,,,0.00,WUHU21623XXSP,2013-10-08 01:26:00,
2013-10-07 20:31:00,44.4,39.3,29.85,West,270,0.0,0.0,82,0.00,,,0.00,WUHU21623XXSP,2013-10-08 01:31:00,
2013-10-07 20:36:00,43.7,38.9,29.85,West,270,0.0,0.0,83,0.00,,,0.00,WUHU21623XXSP,2013-10-08 01:36:00,
2013-10-07 20:41:00,43.3,38.8,29.85,West,270,0.0,0.0,84,0.00,,,0.00,WUHU21623XXSP,2013-10-08 01:41:00,
2013-10-07 20:46:00,43.5,39.0,29.85,West,270,0.0,0.0,84,0.00,,,0.00,WUHU21623XXSP,2013-10-08 01:46:00,
2013-10-07 20:51:00,43.5,39.0,29.85,West,270,0.0,0.0,84,0.00,,,0.00,WUHU21623XXSP,2013-10-08 01:51:00,
2013-10-07 20:56:00,43.5,38.7,29.85,West,270,0.0,0.0,83,0.00,,,0.00,WUHU21623XXSP,2013-10-08 01:56:00,
2013-10-07 21:01:00,42.6,38.1,29.85,West,270,0.0,0.0,84,0.00,,,0.00,WUHU21623XXSP,2013-10-08 02:01:00,
2013-10-07 21:06:00,42.1,37.9,29.86,West,270,0.0,0.0,85,0.00,,,0.00,WUHU21623XXSP,2013-10-08 02:06:00,
2013-10-07 21:11:00,41.7,37.5,29.86,West,270,0.0,0.0,85,0.00,,,0.00,WUHU21623XXSP,2013-10-08 02:11:00,
2013-10-07 21:16:00,41.7,37.8,29.86,West,270,0.0,0.0,86,0.00,,,0.00,WUHU21623XXSP,2013-10-08 02:16:00,
2013-10-07 21:21:00,42.6,39.0,29.85,North,0,0.0,0.0,87,0.00,,,0.00,WUHU21623XXSP,2013-10-08 02:21:00,
2013-10-07 21:26:00,43.3,38.8,29.85,West,270,0.0,0.0,84,0.00,,,0.00,WUHU21623XXSP,2013-10-08 02:26:00,
2013-10-07 21:31:00,42.4,37.9,29.85,West,270,0.0,0.0,84,0.00,,,0.00,WUHU21623XXSP,2013-10-08 02:31:00,
2013-10-07 21:36:00,41.7,37.5,29.85,West,270,0.0,0.0,85,0.00,,,0.00,WUHU21623XXSP,2013-10-08 02:36:00,
2013-10-07 21:41:00,41.7,37.5,29.85,West,270,0.0,0.0,85,0.00,,,0.00,WUHU21623XXSP,2013-10-08 02:41:00,
2013-10-07 21:46:00,41.7,37.5,29.86,West,270,0.0,0.0,85,0.00,,,0.00,WUHU21623XXSP,2013-10-08 02:46:00,
2013-10-07 21:51:00,41.2,36.6,29.86,West,270,0.0,0.0,84,0.00,,,0.00,WUHU21623XXSP,2013-10-08 02:51:00,
2013-10-07 21:56:00,40.8,36.6,29.86,West,270,0.0,0.0,85,0.00,,,0.00,WUHU21623XXSP,2013-10-08 02:56:00,
2013-10-07 22:01:00,40.6,36.7,29.86,West,270,0.0,0.0,86,0.00,,,0.00,WUHU21623XXSP,2013-10-08 03:01:00,
2013-10-07 22:06:00,40.6,36.7,29.86,West,270,0.0,0.0,86,0.00,,,0.00,WUHU21623XXSP,2013-10-08 03:06:00,
2013-10-07 22:11:00,40.3,36.4,29.85,West,270,0.0,0.0,86,0.00,,,0.00,WUHU21623XXSP,2013-10-08 03:11:00,
2013-10-07 22:16:00,40.3,36.4,29.86,North,0,0.0,0.0,86,0.00,,,0.00,WUHU21623XXSP,2013-10-08 03:16:00,
2013-10-07 22:21:00,40.1,36.2,29.86,West,270,0.0,0.0,86,0.00,,,0.00,WUHU21623XXSP,2013-10-08 03:21:00,
2013-10-07 22:26:00,40.3,36.4,29.85,WSW,247,0.0,0.0,86,0.00,,,0.00,WUHU21623XXSP,2013-10-08 03:26:00,
2013-10-07 22:31:00,40.3,36.4,29.86,WSW,247,0.0,0.0,86,0.00,,,0.00,WUHU21623XXSP,2013-10-08 03:31:00,
2013-10-07 22:36:00,40.8,36.6,29.86,WSW,247,0.0,0.0,85,0.00,,,0.00,WUHU21623XXSP,2013-10-08 03:36:00,
2013-10-07 22:41:00,40.6,36.4,29.85,WSW,247,0.0,0.0,85,0.00,,,0.00,WUHU21623XXSP,2013-10-08 03:41:00,
2013-10-07 22:46:00,41.0,36.5,29.86,WSW,247,0.0,0.0,84,0.00,,,0.00,WUHU21623XXSP,2013-10-08 03:46:00,
2013-10-07 22:51:00,40.5,35.9,29.85,WSW,247,0.0,0.0,84,0.00,,,0.00,WUHU21623XXSP,2013-10-08 03:51:00,
2013-10-07 22:56:00,39.6,35.1,29.86,WSW,247,0.0,0.0,84,0.00,,,0.00,WUHU21623XXSP,2013-10-08 03:56:00,
2013-10-07 23:01:00,39.9,35.7,29.86,WSW,247,0.0,0.0,85,0.00,,,0.00,WUHU21623XXSP,2013-10-08 04:01:00,
2013-10-07 23:06:00,39.6,35.4,29.86,WSW,247,0.0,0.0,85,0.00,,,0.00,WUHU21623XXSP,2013-10-08 04:06:00,
2013-10-07 23:11:00,39.9,35.7,29.86,North,0,0.0,0.0,85,0.00,,,0.00,WUHU21623XXSP,2013-10-08 04:11:00,
2013-10-07 23:16:00,39.9,35.7,29.86,WSW,247,0.0,0.0,85,0.00,,,0.00,WUHU21623XXSP,2013-10-08 04:16:00,
2013-10-07 23:21:00,39.6,35.4,29.86,WSW,247,0.0,0.0,85,0.00,,,0.00,WUHU21623XXSP,2013-10-08 04:21:00,
2013-10-07 23:26:00,39.4,35.5,29.86,WSW,247,0.0,0.0,86,0.00,,,0.00,WUHU21623XXSP,2013-10-08 04:26:00,
2013-10-07 23:31:00,39.4,35.5,29.86,North,0,0.0,0.0,86,0.00,,,0.00,WUHU21623XXSP,2013-10-08 04:31:00,
2013-10-07 23:36:00,39.4,35.5,29.86,WSW,247,0.0,0.0,86,0.00,,,0.00,WUHU21623XXSP,2013-10-08 04:36:00,
2013-10-07 23:41:00,39.4,35.5,29.86,WSW,247,0.0,0.0,86,0.00,,,0.00,WUHU21623XXSP,2013-10-08 04:41:00,
2013-10-07 23:50:00,39.4,35.5,29.86,North,0,0.0,0.0,86,0.00,,,0.00,WUHU21623XXSP,2013-10-08 04:50:00,
2013-10-07 23:55:00,38.5,34.6,29.86,WSW,247,0.0,0.0,86,0.00,,,0.00,WUHU21623XXSP,2013-10-08 04:55:00,